sensor_id;sensor_type;location;lat;lon;timestamp;P1;durP1;ratioP1;P2;durP2;ratioP2
21392;SDS011;10857;52.228;21.026;2023-07-31T00:00:15;2.78;;;2.47;;
21392;SDS011;10857;52.228;21.026;2023-07-31T00:02:42;3.97;;;2.50;;
21392;SDS011;10857;52.228;21.026;2023-07-31T00:05:09;2.88;;;2.50;;
21392;SDS011;10857;52.228;21.026;2023-07-31T00:07:36;2.65;;;2.45;;
21392;SDS011;10857;52.228;21.026;2023-07-31T00:10:04;4.70;;;2.60;;
21392;SDS011;10857;52.228;21.026;2023-07-31T00:12:31;3.20;;;2.50;;
21392;SDS011;10857;52.228;21.026;2023-07-31T00:14:59;3.25;;;2.60;;
21392;SDS011;10857;52.228;21.026;2023-07-31T00:17:26;2.75;;;2.50;;
21392;SDS011;10857;52.228;21.026;2023-07-31T00:19:53;4.75;;;2.63;;
21392;SDS011;10857;52.228;21.026;2023-07-31T00:22:20;3.13;;;2.20;;
21392;SDS011;10857;52.228;21.026;2023-07-31T00:24:47;3.00;;;2.50;;
21392;SDS011;10857;52.228;21.026;2023-07-31T00:27:14;3.45;;;2.40;;
21392;SDS011;10857;52.228;21.026;2023-07-31T00:29:42;3.78;;;2.58;;
21392;SDS011;10857;52.228;21.026;2023-07-31T00:32:09;3.15;;;2.50;;
21392;SDS011;10857;52.228;21.026;2023-07-31T00:34:37;2.58;;;2.38;;
21392;SDS011;10857;52.228;21.026;2023-07-31T00:37:04;3.92;;;2.75;;
21392;SDS011;10857;52.228;21.026;2023-07-31T00:39:31;2.50;;;2.30;;
21392;SDS011;10857;52.228;21.026;2023-07-31T00:42:00;4.88;;;2.60;;
21392;SDS011;10857;52.228;21.026;2023-07-31T00:44:27;3.13;;;2.50;;
21392;SDS011;10857;52.228;21.026;2023-07-31T00:46:54;3.42;;;2.67;;
21392;SDS011;10857;52.228;21.026;2023-07-31T00:49:22;3.53;;;2.75;;
21392;SDS011;10857;52.228;21.026;2023-07-31T00:51:50;3.50;;;2.53;;
21392;SDS011;10857;52.228;21.026;2023-07-31T00:54:17;3.60;;;2.75;;
21392;SDS011;10857;52.228;21.026;2023-07-31T00:56:47;4.40;;;2.80;;
21392;SDS011;10857;52.228;21.026;2023-07-31T00:59:15;4.35;;;3.00;;
21392;SDS011;10857;52.228;21.026;2023-07-31T01:01:42;4.97;;;2.80;;
21392;SDS011;10857;52.228;21.026;2023-07-31T01:04:09;4.28;;;2.60;;
21392;SDS011;10857;52.228;21.026;2023-07-31T01:06:40;4.25;;;2.70;;
21392;SDS011;10857;52.228;21.026;2023-07-31T01:12:18;3.97;;;2.83;;
21392;SDS011;10857;52.228;21.026;2023-07-31T01:17:33;4.70;;;3.05;;
21392;SDS011;10857;52.228;21.026;2023-07-31T01:20:02;3.70;;;3.10;;
21392;SDS011;10857;52.228;21.026;2023-07-31T01:25:00;3.42;;;2.85;;
21392;SDS011;10857;52.228;21.026;2023-07-31T01:27:34;3.20;;;2.83;;
21392;SDS011;10857;52.228;21.026;2023-07-31T01:30:14;3.72;;;2.88;;
21392;SDS011;10857;52.228;21.026;2023-07-31T01:32:43;3.30;;;2.80;;
21392;SDS011;10857;52.228;21.026;2023-07-31T01:35:15;5.80;;;3.05;;
21392;SDS011;10857;52.228;21.026;2023-07-31T01:37:42;4.88;;;2.80;;
21392;SDS011;10857;52.228;21.026;2023-07-31T01:40:09;3.33;;;3.03;;
21392;SDS011;10857;52.228;21.026;2023-07-31T01:42:36;3.72;;;3.08;;
21392;SDS011;10857;52.228;21.026;2023-07-31T01:45:04;5.45;;;2.92;;
21392;SDS011;10857;52.228;21.026;2023-07-31T01:47:31;4.65;;;3.20;;
21392;SDS011;10857;52.228;21.026;2023-07-31T01:49:58;4.32;;;3.25;;
21392;SDS011;10857;52.228;21.026;2023-07-31T01:52:25;3.78;;;3.00;;
21392;SDS011;10857;52.228;21.026;2023-07-31T01:54:52;3.88;;;3.25;;
21392;SDS011;10857;52.228;21.026;2023-07-31T01:57:20;4.20;;;3.08;;
21392;SDS011;10857;52.228;21.026;2023-07-31T01:59:47;4.93;;;3.30;;
21392;SDS011;10857;52.228;21.026;2023-07-31T02:02:14;4.20;;;3.35;;
21392;SDS011;10857;52.228;21.026;2023-07-31T02:04:41;3.40;;;3.10;;
21392;SDS011;10857;52.228;21.026;2023-07-31T02:07:08;4.95;;;3.30;;
21392;SDS011;10857;52.228;21.026;2023-07-31T02:09:35;5.68;;;3.22;;
21392;SDS011;10857;52.228;21.026;2023-07-31T02:12:02;4.03;;;2.83;;
21392;SDS011;10857;52.228;21.026;2023-07-31T02:14:30;5.47;;;3.15;;
21392;SDS011;10857;52.228;21.026;2023-07-31T02:16:57;4.70;;;3.38;;
21392;SDS011;10857;52.228;21.026;2023-07-31T02:19:24;5.63;;;3.33;;
21392;SDS011;10857;52.228;21.026;2023-07-31T02:21:51;6.07;;;3.33;;
21392;SDS011;10857;52.228;21.026;2023-07-31T02:24:18;4.15;;;3.58;;
21392;SDS011;10857;52.228;21.026;2023-07-31T02:26:45;8.02;;;3.85;;
21392;SDS011;10857;52.228;21.026;2023-07-31T02:29:13;4.70;;;3.80;;
21392;SDS011;10857;52.228;21.026;2023-07-31T02:31:40;4.70;;;3.83;;
21392;SDS011;10857;52.228;21.026;2023-07-31T02:34:07;5.35;;;3.80;;
21392;SDS011;10857;52.228;21.026;2023-07-31T02:36:34;6.30;;;3.60;;
21392;SDS011;10857;52.228;21.026;2023-07-31T02:39:01;5.38;;;3.70;;
21392;SDS011;10857;52.228;21.026;2023-07-31T02:42:01;6.47;;;4.38;;
21392;SDS011;10857;52.228;21.026;2023-07-31T02:44:28;5.95;;;4.00;;
21392;SDS011;10857;52.228;21.026;2023-07-31T02:46:55;8.68;;;4.40;;
21392;SDS011;10857;52.228;21.026;2023-07-31T02:49:22;8.13;;;4.40;;
21392;SDS011;10857;52.228;21.026;2023-07-31T02:51:49;4.35;;;3.80;;
21392;SDS011;10857;52.228;21.026;2023-07-31T02:54:16;4.70;;;4.30;;
21392;SDS011;10857;52.228;21.026;2023-07-31T02:56:43;4.50;;;4.03;;
21392;SDS011;10857;52.228;21.026;2023-07-31T02:59:10;5.38;;;3.97;;
21392;SDS011;10857;52.228;21.026;2023-07-31T03:01:37;5.70;;;4.35;;
21392;SDS011;10857;52.228;21.026;2023-07-31T03:04:04;5.45;;;4.28;;
21392;SDS011;10857;52.228;21.026;2023-07-31T03:06:32;6.00;;;4.35;;
21392;SDS011;10857;52.228;21.026;2023-07-31T03:08:59;10.23;;;4.97;;
21392;SDS011;10857;52.228;21.026;2023-07-31T03:11:27;5.30;;;4.25;;
21392;SDS011;10857;52.228;21.026;2023-07-31T03:13:55;10.05;;;4.38;;
21392;SDS011;10857;52.228;21.026;2023-07-31T03:16:22;8.63;;;4.18;;
21392;SDS011;10857;52.228;21.026;2023-07-31T03:18:49;7.68;;;4.32;;
21392;SDS011;10857;52.228;21.026;2023-07-31T03:21:16;7.10;;;4.13;;
21392;SDS011;10857;52.228;21.026;2023-07-31T03:23:43;7.50;;;4.20;;
21392;SDS011;10857;52.228;21.026;2023-07-31T03:26:10;7.50;;;4.65;;
21392;SDS011;10857;52.228;21.026;2023-07-31T03:28:37;6.85;;;4.38;;
21392;SDS011;10857;52.228;21.026;2023-07-31T03:31:04;5.88;;;4.30;;
21392;SDS011;10857;52.228;21.026;2023-07-31T03:33:32;6.65;;;3.88;;
21392;SDS011;10857;52.228;21.026;2023-07-31T03:35:59;6.40;;;4.10;;
21392;SDS011;10857;52.228;21.026;2023-07-31T03:38:26;5.68;;;4.07;;
21392;SDS011;10857;52.228;21.026;2023-07-31T03:40:53;7.60;;;4.38;;
21392;SDS011;10857;52.228;21.026;2023-07-31T03:43:21;4.57;;;4.10;;
21392;SDS011;10857;52.228;21.026;2023-07-31T03:45:48;6.22;;;4.32;;
21392;SDS011;10857;52.228;21.026;2023-07-31T03:48:15;6.47;;;4.05;;
21392;SDS011;10857;52.228;21.026;2023-07-31T03:50:43;8.15;;;3.90;;
21392;SDS011;10857;52.228;21.026;2023-07-31T03:53:10;6.78;;;4.20;;
21392;SDS011;10857;52.228;21.026;2023-07-31T03:55:37;8.25;;;4.43;;
21392;SDS011;10857;52.228;21.026;2023-07-31T03:58:04;5.20;;;3.90;;
21392;SDS011;10857;52.228;21.026;2023-07-31T04:00:31;12.20;;;4.30;;
21392;SDS011;10857;52.228;21.026;2023-07-31T04:02:58;6.53;;;4.18;;
21392;SDS011;10857;52.228;21.026;2023-07-31T04:05:25;5.47;;;3.90;;
21392;SDS011;10857;52.228;21.026;2023-07-31T04:07:52;6.88;;;4.28;;
21392;SDS011;10857;52.228;21.026;2023-07-31T04:10:19;5.65;;;3.92;;
21392;SDS011;10857;52.228;21.026;2023-07-31T04:12:46;8.50;;;4.13;;
21392;SDS011;10857;52.228;21.026;2023-07-31T04:15:14;5.45;;;4.00;;
21392;SDS011;10857;52.228;21.026;2023-07-31T04:17:41;5.72;;;4.25;;
21392;SDS011;10857;52.228;21.026;2023-07-31T04:20:09;8.00;;;4.60;;
21392;SDS011;10857;52.228;21.026;2023-07-31T04:22:36;5.15;;;4.20;;
21392;SDS011;10857;52.228;21.026;2023-07-31T04:25:03;6.07;;;4.00;;
21392;SDS011;10857;52.228;21.026;2023-07-31T04:27:30;7.45;;;4.20;;
21392;SDS011;10857;52.228;21.026;2023-07-31T04:29:57;9.15;;;4.35;;
21392;SDS011;10857;52.228;21.026;2023-07-31T04:32:24;8.38;;;4.10;;
21392;SDS011;10857;52.228;21.026;2023-07-31T04:34:51;4.30;;;3.70;;
21392;SDS011;10857;52.228;21.026;2023-07-31T04:37:18;7.43;;;4.00;;
21392;SDS011;10857;52.228;21.026;2023-07-31T04:39:45;5.93;;;3.88;;
21392;SDS011;10857;52.228;21.026;2023-07-31T04:42:13;7.80;;;4.35;;
21392;SDS011;10857;52.228;21.026;2023-07-31T04:44:40;6.32;;;4.30;;
21392;SDS011;10857;52.228;21.026;2023-07-31T04:47:07;6.20;;;4.13;;
21392;SDS011;10857;52.228;21.026;2023-07-31T04:49:34;6.50;;;4.00;;
21392;SDS011;10857;52.228;21.026;2023-07-31T04:52:01;6.78;;;4.43;;
21392;SDS011;10857;52.228;21.026;2023-07-31T04:54:28;11.48;;;4.20;;
21392;SDS011;10857;52.228;21.026;2023-07-31T04:56:56;5.80;;;3.80;;
21392;SDS011;10857;52.228;21.026;2023-07-31T04:59:23;6.78;;;3.97;;
21392;SDS011;10857;52.228;21.026;2023-07-31T05:01:50;5.35;;;4.13;;
21392;SDS011;10857;52.228;21.026;2023-07-31T05:04:17;5.30;;;4.05;;
21392;SDS011;10857;52.228;21.026;2023-07-31T05:06:44;6.22;;;3.97;;
21392;SDS011;10857;52.228;21.026;2023-07-31T05:09:11;5.82;;;3.95;;
21392;SDS011;10857;52.228;21.026;2023-07-31T05:11:38;5.85;;;4.20;;
21392;SDS011;10857;52.228;21.026;2023-07-31T05:14:06;8.45;;;4.40;;
21392;SDS011;10857;52.228;21.026;2023-07-31T05:16:34;7.80;;;4.50;;
21392;SDS011;10857;52.228;21.026;2023-07-31T05:19:01;8.63;;;4.80;;
21392;SDS011;10857;52.228;21.026;2023-07-31T05:21:28;6.18;;;4.43;;
21392;SDS011;10857;52.228;21.026;2023-07-31T05:23:55;9.13;;;4.57;;
21392;SDS011;10857;52.228;21.026;2023-07-31T05:26:22;6.85;;;4.57;;
21392;SDS011;10857;52.228;21.026;2023-07-31T05:28:49;6.72;;;4.40;;
21392;SDS011;10857;52.228;21.026;2023-07-31T05:31:16;8.88;;;4.70;;
21392;SDS011;10857;52.228;21.026;2023-07-31T05:33:43;9.27;;;4.60;;
21392;SDS011;10857;52.228;21.026;2023-07-31T05:36:10;6.72;;;4.50;;
21392;SDS011;10857;52.228;21.026;2023-07-31T05:38:37;5.78;;;4.32;;
21392;SDS011;10857;52.228;21.026;2023-07-31T05:41:07;5.68;;;4.32;;
21392;SDS011;10857;52.228;21.026;2023-07-31T05:43:35;10.13;;;4.65;;
21392;SDS011;10857;52.228;21.026;2023-07-31T05:46:02;9.77;;;4.57;;
21392;SDS011;10857;52.228;21.026;2023-07-31T05:48:32;9.63;;;4.25;;
21392;SDS011;10857;52.228;21.026;2023-07-31T05:51:01;10.35;;;4.40;;
21392;SDS011;10857;52.228;21.026;2023-07-31T05:53:28;8.88;;;4.30;;
21392;SDS011;10857;52.228;21.026;2023-07-31T05:55:55;9.10;;;3.75;;
21392;SDS011;10857;52.228;21.026;2023-07-31T05:58:22;17.25;;;4.10;;
21392;SDS011;10857;52.228;21.026;2023-07-31T06:00:49;8.85;;;4.10;;
21392;SDS011;10857;52.228;21.026;2023-07-31T06:03:16;7.57;;;4.22;;
21392;SDS011;10857;52.228;21.026;2023-07-31T06:05:43;8.02;;;4.38;;
21392;SDS011;10857;52.228;21.026;2023-07-31T06:08:11;6.55;;;4.60;;
21392;SDS011;10857;52.228;21.026;2023-07-31T06:10:38;10.40;;;4.20;;
21392;SDS011;10857;52.228;21.026;2023-07-31T06:13:06;8.23;;;3.85;;
21392;SDS011;10857;52.228;21.026;2023-07-31T06:15:35;7.55;;;4.10;;
21392;SDS011;10857;52.228;21.026;2023-07-31T06:18:03;4.65;;;3.63;;
21392;SDS011;10857;52.228;21.026;2023-07-31T06:20:34;9.82;;;3.90;;
21392;SDS011;10857;52.228;21.026;2023-07-31T06:23:01;11.43;;;4.13;;
21392;SDS011;10857;52.228;21.026;2023-07-31T06:25:30;6.43;;;4.28;;
21392;SDS011;10857;52.228;21.026;2023-07-31T06:27:57;5.60;;;4.07;;
21392;SDS011;10857;52.228;21.026;2023-07-31T06:30:24;6.85;;;3.85;;
21392;SDS011;10857;52.228;21.026;2023-07-31T06:32:51;6.38;;;3.80;;
21392;SDS011;10857;52.228;21.026;2023-07-31T06:35:18;6.25;;;3.97;;
21392;SDS011;10857;52.228;21.026;2023-07-31T06:37:46;10.68;;;4.53;;
21392;SDS011;10857;52.228;21.026;2023-07-31T06:40:12;5.75;;;4.22;;
21392;SDS011;10857;52.228;21.026;2023-07-31T06:42:39;9.23;;;4.75;;
21392;SDS011;10857;52.228;21.026;2023-07-31T06:45:07;6.93;;;4.30;;
21392;SDS011;10857;52.228;21.026;2023-07-31T06:47:34;7.00;;;4.45;;
21392;SDS011;10857;52.228;21.026;2023-07-31T06:50:01;8.15;;;4.80;;
21392;SDS011;10857;52.228;21.026;2023-07-31T06:52:28;7.07;;;4.47;;
21392;SDS011;10857;52.228;21.026;2023-07-31T06:55:02;9.52;;;4.90;;
21392;SDS011;10857;52.228;21.026;2023-07-31T06:57:54;10.27;;;4.30;;
21392;SDS011;10857;52.228;21.026;2023-07-31T07:00:22;7.13;;;4.40;;
21392;SDS011;10857;52.228;21.026;2023-07-31T07:02:50;10.00;;;4.70;;
21392;SDS011;10857;52.228;21.026;2023-07-31T07:05:18;8.48;;;4.70;;
21392;SDS011;10857;52.228;21.026;2023-07-31T07:07:45;9.23;;;4.80;;
21392;SDS011;10857;52.228;21.026;2023-07-31T07:10:12;8.15;;;4.47;;
21392;SDS011;10857;52.228;21.026;2023-07-31T07:12:39;8.00;;;4.80;;
21392;SDS011;10857;52.228;21.026;2023-07-31T07:15:06;10.88;;;5.13;;
21392;SDS011;10857;52.228;21.026;2023-07-31T07:17:34;9.00;;;4.90;;
21392;SDS011;10857;52.228;21.026;2023-07-31T07:20:01;7.43;;;4.75;;
21392;SDS011;10857;52.228;21.026;2023-07-31T07:22:29;11.07;;;5.03;;
21392;SDS011;10857;52.228;21.026;2023-07-31T07:24:57;9.90;;;5.00;;
21392;SDS011;10857;52.228;21.026;2023-07-31T07:27:23;9.02;;;4.90;;
21392;SDS011;10857;52.228;21.026;2023-07-31T07:29:51;11.75;;;5.00;;
21392;SDS011;10857;52.228;21.026;2023-07-31T07:32:21;9.32;;;4.95;;
21392;SDS011;10857;52.228;21.026;2023-07-31T07:34:48;10.32;;;5.50;;
21392;SDS011;10857;52.228;21.026;2023-07-31T07:37:15;9.52;;;6.38;;
21392;SDS011;10857;52.228;21.026;2023-07-31T07:39:42;11.30;;;4.90;;
21392;SDS011;10857;52.228;21.026;2023-07-31T07:42:10;6.80;;;4.75;;
21392;SDS011;10857;52.228;21.026;2023-07-31T07:44:39;10.57;;;4.95;;
21392;SDS011;10857;52.228;21.026;2023-07-31T07:47:06;9.15;;;4.70;;
21392;SDS011;10857;52.228;21.026;2023-07-31T07:49:33;7.63;;;4.28;;
21392;SDS011;10857;52.228;21.026;2023-07-31T07:52:01;8.73;;;4.50;;
21392;SDS011;10857;52.228;21.026;2023-07-31T07:54:30;7.80;;;3.80;;
21392;SDS011;10857;52.228;21.026;2023-07-31T07:56:58;8.57;;;3.97;;
21392;SDS011;10857;52.228;21.026;2023-07-31T07:59:25;9.38;;;3.80;;
21392;SDS011;10857;52.228;21.026;2023-07-31T08:01:52;9.05;;;4.18;;
21392;SDS011;10857;52.228;21.026;2023-07-31T08:04:19;10.82;;;4.25;;
21392;SDS011;10857;52.228;21.026;2023-07-31T08:06:47;11.38;;;4.20;;
21392;SDS011;10857;52.228;21.026;2023-07-31T08:09:14;8.60;;;4.18;;
21392;SDS011;10857;52.228;21.026;2023-07-31T08:11:41;7.55;;;4.03;;
21392;SDS011;10857;52.228;21.026;2023-07-31T08:14:08;11.13;;;4.00;;
21392;SDS011;10857;52.228;21.026;2023-07-31T08:16:35;5.93;;;4.10;;
21392;SDS011;10857;52.228;21.026;2023-07-31T08:19:03;9.35;;;3.70;;
21392;SDS011;10857;52.228;21.026;2023-07-31T08:21:31;5.80;;;3.92;;
21392;SDS011;10857;52.228;21.026;2023-07-31T08:23:58;6.95;;;4.05;;
21392;SDS011;10857;52.228;21.026;2023-07-31T08:26:25;6.47;;;3.90;;
21392;SDS011;10857;52.228;21.026;2023-07-31T08:28:52;7.32;;;3.65;;
21392;SDS011;10857;52.228;21.026;2023-07-31T08:31:19;7.22;;;3.75;;
21392;SDS011;10857;52.228;21.026;2023-07-31T08:33:46;8.00;;;4.10;;
21392;SDS011;10857;52.228;21.026;2023-07-31T08:36:13;5.97;;;3.50;;
21392;SDS011;10857;52.228;21.026;2023-07-31T08:38:40;4.28;;;3.35;;
21392;SDS011;10857;52.228;21.026;2023-07-31T08:41:07;5.75;;;3.72;;
21392;SDS011;10857;52.228;21.026;2023-07-31T08:43:34;8.13;;;4.07;;
21392;SDS011;10857;52.228;21.026;2023-07-31T08:46:04;7.38;;;3.70;;
21392;SDS011;10857;52.228;21.026;2023-07-31T08:48:32;10.77;;;3.80;;
21392;SDS011;10857;52.228;21.026;2023-07-31T08:50:59;8.65;;;4.03;;
21392;SDS011;10857;52.228;21.026;2023-07-31T08:53:26;6.85;;;3.72;;
21392;SDS011;10857;52.228;21.026;2023-07-31T08:55:53;6.43;;;3.47;;
21392;SDS011;10857;52.228;21.026;2023-07-31T08:58:22;6.03;;;3.60;;
21392;SDS011;10857;52.228;21.026;2023-07-31T09:00:50;7.05;;;3.75;;
21392;SDS011;10857;52.228;21.026;2023-07-31T09:03:20;5.68;;;3.33;;
21392;SDS011;10857;52.228;21.026;2023-07-31T09:05:49;7.13;;;3.47;;
21392;SDS011;10857;52.228;21.026;2023-07-31T09:08:18;10.95;;;3.53;;
21392;SDS011;10857;52.228;21.026;2023-07-31T09:10:46;8.10;;;3.72;;
21392;SDS011;10857;52.228;21.026;2023-07-31T09:13:14;10.45;;;3.65;;
21392;SDS011;10857;52.228;21.026;2023-07-31T09:15:42;7.00;;;3.40;;
21392;SDS011;10857;52.228;21.026;2023-07-31T09:18:10;11.15;;;4.30;;
21392;SDS011;10857;52.228;21.026;2023-07-31T09:20:38;7.82;;;3.55;;
21392;SDS011;10857;52.228;21.026;2023-07-31T09:23:06;7.88;;;4.15;;
21392;SDS011;10857;52.228;21.026;2023-07-31T09:25:35;12.00;;;5.30;;
21392;SDS011;10857;52.228;21.026;2023-07-31T09:28:04;6.15;;;3.50;;
21392;SDS011;10857;52.228;21.026;2023-07-31T09:33:14;5.00;;;3.08;;
21392;SDS011;10857;52.228;21.026;2023-07-31T09:35:42;7.22;;;3.03;;
21392;SDS011;10857;52.228;21.026;2023-07-31T09:38:11;5.75;;;3.40;;
21392;SDS011;10857;52.228;21.026;2023-07-31T09:40:43;6.35;;;3.50;;
21392;SDS011;10857;52.228;21.026;2023-07-31T09:43:18;5.85;;;3.25;;
21392;SDS011;10857;52.228;21.026;2023-07-31T09:45:46;6.57;;;3.30;;
21392;SDS011;10857;52.228;21.026;2023-07-31T09:48:15;7.32;;;3.08;;
21392;SDS011;10857;52.228;21.026;2023-07-31T09:50:46;5.47;;;3.35;;
21392;SDS011;10857;52.228;21.026;2023-07-31T09:53:15;5.18;;;2.92;;
21392;SDS011;10857;52.228;21.026;2023-07-31T09:55:43;7.10;;;2.95;;
21392;SDS011;10857;52.228;21.026;2023-07-31T09:58:11;6.75;;;2.90;;
21392;SDS011;10857;52.228;21.026;2023-07-31T10:00:39;6.00;;;2.90;;
21392;SDS011;10857;52.228;21.026;2023-07-31T10:03:09;5.43;;;3.00;;
21392;SDS011;10857;52.228;21.026;2023-07-31T10:05:38;5.03;;;2.63;;
21392;SDS011;10857;52.228;21.026;2023-07-31T10:08:09;5.15;;;2.28;;
21392;SDS011;10857;52.228;21.026;2023-07-31T10:10:37;4.80;;;2.40;;
21392;SDS011;10857;52.228;21.026;2023-07-31T10:13:09;5.53;;;2.40;;
21392;SDS011;10857;52.228;21.026;2023-07-31T10:15:40;7.28;;;2.35;;
21392;SDS011;10857;52.228;21.026;2023-07-31T10:18:10;7.43;;;2.88;;
21392;SDS011;10857;52.228;21.026;2023-07-31T10:20:39;4.07;;;2.45;;
21392;SDS011;10857;52.228;21.026;2023-07-31T10:23:07;6.00;;;2.58;;
21392;SDS011;10857;52.228;21.026;2023-07-31T10:25:35;6.03;;;2.10;;
21392;SDS011;10857;52.228;21.026;2023-07-31T10:28:03;3.60;;;2.35;;
21392;SDS011;10857;52.228;21.026;2023-07-31T10:30:30;3.22;;;2.28;;
21392;SDS011;10857;52.228;21.026;2023-07-31T10:33:04;6.47;;;2.30;;
21392;SDS011;10857;52.228;21.026;2023-07-31T10:35:31;4.43;;;2.10;;
21392;SDS011;10857;52.228;21.026;2023-07-31T10:38:10;6.00;;;2.33;;
21392;SDS011;10857;52.228;21.026;2023-07-31T10:40:38;5.93;;;2.30;;
21392;SDS011;10857;52.228;21.026;2023-07-31T10:43:06;3.42;;;2.22;;
21392;SDS011;10857;52.228;21.026;2023-07-31T10:45:35;3.58;;;2.30;;
21392;SDS011;10857;52.228;21.026;2023-07-31T10:48:13;4.03;;;2.30;;
21392;SDS011;10857;52.228;21.026;2023-07-31T10:50:47;6.30;;;2.10;;
21392;SDS011;10857;52.228;21.026;2023-07-31T10:55:59;5.22;;;2.45;;
21392;SDS011;10857;52.228;21.026;2023-07-31T10:58:27;17.02;;;3.28;;
21392;SDS011;10857;52.228;21.026;2023-07-31T11:00:58;9.27;;;4.22;;
21392;SDS011;10857;52.228;21.026;2023-07-31T11:03:29;6.43;;;2.70;;
21392;SDS011;10857;52.228;21.026;2023-07-31T11:06:09;7.03;;;3.58;;
21392;SDS011;10857;52.228;21.026;2023-07-31T11:08:41;6.68;;;2.10;;
21392;SDS011;10857;52.228;21.026;2023-07-31T11:11:13;5.47;;;2.72;;
21392;SDS011;10857;52.228;21.026;2023-07-31T11:13:51;5.03;;;1.80;;
21392;SDS011;10857;52.228;21.026;2023-07-31T11:16:21;3.17;;;2.22;;
21392;SDS011;10857;52.228;21.026;2023-07-31T11:18:52;3.60;;;1.73;;
21392;SDS011;10857;52.228;21.026;2023-07-31T11:21:22;5.38;;;1.80;;
21392;SDS011;10857;52.228;21.026;2023-07-31T11:23:51;5.40;;;1.85;;
21392;SDS011;10857;52.228;21.026;2023-07-31T11:26:20;4.03;;;1.70;;
21392;SDS011;10857;52.228;21.026;2023-07-31T11:28:47;3.83;;;1.65;;
21392;SDS011;10857;52.228;21.026;2023-07-31T11:31:15;6.07;;;1.80;;
21392;SDS011;10857;52.228;21.026;2023-07-31T11:33:43;4.13;;;1.58;;
21392;SDS011;10857;52.228;21.026;2023-07-31T11:36:14;6.15;;;1.85;;
21392;SDS011;10857;52.228;21.026;2023-07-31T11:38:43;5.47;;;1.77;;
21392;SDS011;10857;52.228;21.026;2023-07-31T11:41:10;6.32;;;1.90;;
21392;SDS011;10857;52.228;21.026;2023-07-31T11:43:40;5.55;;;1.90;;
21392;SDS011;10857;52.228;21.026;2023-07-31T11:46:07;4.97;;;2.13;;
21392;SDS011;10857;52.228;21.026;2023-07-31T11:48:34;5.00;;;2.30;;
21392;SDS011;10857;52.228;21.026;2023-07-31T11:51:04;3.10;;;1.90;;
21392;SDS011;10857;52.228;21.026;2023-07-31T11:53:48;3.28;;;1.83;;
21392;SDS011;10857;52.228;21.026;2023-07-31T11:56:18;6.22;;;1.77;;
21392;SDS011;10857;52.228;21.026;2023-07-31T11:58:47;7.10;;;1.80;;
21392;SDS011;10857;52.228;21.026;2023-07-31T12:01:18;32.35;;;4.90;;
21392;SDS011;10857;52.228;21.026;2023-07-31T12:03:47;10.80;;;2.25;;
21392;SDS011;10857;52.228;21.026;2023-07-31T12:06:16;4.50;;;1.80;;
21392;SDS011;10857;52.228;21.026;2023-07-31T12:08:43;5.07;;;2.00;;
21392;SDS011;10857;52.228;21.026;2023-07-31T12:11:11;3.60;;;1.73;;
21392;SDS011;10857;52.228;21.026;2023-07-31T12:13:39;4.28;;;2.17;;
21392;SDS011;10857;52.228;21.026;2023-07-31T12:16:06;5.93;;;1.90;;
21392;SDS011;10857;52.228;21.026;2023-07-31T12:18:34;4.93;;;2.00;;
21392;SDS011;10857;52.228;21.026;2023-07-31T12:21:08;3.35;;;1.92;;
21392;SDS011;10857;52.228;21.026;2023-07-31T12:23:38;6.65;;;1.90;;
21392;SDS011;10857;52.228;21.026;2023-07-31T12:28:40;6.13;;;2.47;;
21392;SDS011;10857;52.228;21.026;2023-07-31T12:31:10;8.45;;;2.08;;
21392;SDS011;10857;52.228;21.026;2023-07-31T12:33:49;5.22;;;2.55;;
21392;SDS011;10857;52.228;21.026;2023-07-31T12:36:21;7.75;;;2.45;;
21392;SDS011;10857;52.228;21.026;2023-07-31T12:38:50;6.93;;;2.58;;
21392;SDS011;10857;52.228;21.026;2023-07-31T12:41:18;10.73;;;2.42;;
21392;SDS011;10857;52.228;21.026;2023-07-31T12:43:45;4.22;;;2.10;;
21392;SDS011;10857;52.228;21.026;2023-07-31T12:46:12;3.85;;;2.35;;
21392;SDS011;10857;52.228;21.026;2023-07-31T12:48:40;7.68;;;2.47;;
21392;SDS011;10857;52.228;21.026;2023-07-31T12:51:07;4.05;;;2.47;;
21392;SDS011;10857;52.228;21.026;2023-07-31T12:53:35;7.40;;;2.83;;
21392;SDS011;10857;52.228;21.026;2023-07-31T12:56:02;5.95;;;2.58;;
21392;SDS011;10857;52.228;21.026;2023-07-31T12:58:29;8.85;;;2.47;;
21392;SDS011;10857;52.228;21.026;2023-07-31T13:00:57;4.85;;;2.40;;
21392;SDS011;10857;52.228;21.026;2023-07-31T13:03:24;4.65;;;2.50;;
21392;SDS011;10857;52.228;21.026;2023-07-31T13:05:51;4.13;;;2.67;;
21392;SDS011;10857;52.228;21.026;2023-07-31T13:08:19;2.60;;;2.05;;
21392;SDS011;10857;52.228;21.026;2023-07-31T13:10:46;6.85;;;2.40;;
21392;SDS011;10857;52.228;21.026;2023-07-31T13:13:13;6.07;;;2.30;;
21392;SDS011;10857;52.228;21.026;2023-07-31T13:15:40;4.90;;;1.90;;
21392;SDS011;10857;52.228;21.026;2023-07-31T13:18:08;3.15;;;1.90;;
21392;SDS011;10857;52.228;21.026;2023-07-31T13:20:35;3.78;;;1.80;;
21392;SDS011;10857;52.228;21.026;2023-07-31T13:23:02;43.22;;;5.55;;
21392;SDS011;10857;52.228;21.026;2023-07-31T13:25:31;12.40;;;2.55;;
21392;SDS011;10857;52.228;21.026;2023-07-31T13:27:58;5.97;;;2.33;;
21392;SDS011;10857;52.228;21.026;2023-07-31T13:30:29;4.72;;;1.90;;
21392;SDS011;10857;52.228;21.026;2023-07-31T13:32:56;8.73;;;1.75;;
21392;SDS011;10857;52.228;21.026;2023-07-31T13:35:23;3.00;;;1.60;;
21392;SDS011;10857;52.228;21.026;2023-07-31T13:37:50;4.63;;;1.90;;
21392;SDS011;10857;52.228;21.026;2023-07-31T13:40:17;3.63;;;1.83;;
21392;SDS011;10857;52.228;21.026;2023-07-31T13:42:44;4.78;;;2.00;;
21392;SDS011;10857;52.228;21.026;2023-07-31T13:45:11;6.05;;;2.10;;
21392;SDS011;10857;52.228;21.026;2023-07-31T13:47:38;4.85;;;2.05;;
21392;SDS011;10857;52.228;21.026;2023-07-31T13:50:05;5.60;;;1.95;;
21392;SDS011;10857;52.228;21.026;2023-07-31T13:52:32;4.57;;;1.90;;
21392;SDS011;10857;52.228;21.026;2023-07-31T13:58:31;3.75;;;2.13;;
21392;SDS011;10857;52.228;21.026;2023-07-31T14:00:58;4.97;;;2.20;;
21392;SDS011;10857;52.228;21.026;2023-07-31T14:03:25;5.55;;;2.20;;
21392;SDS011;10857;52.228;21.026;2023-07-31T14:05:52;4.57;;;2.00;;
21392;SDS011;10857;52.228;21.026;2023-07-31T14:08:19;6.05;;;1.88;;
21392;SDS011;10857;52.228;21.026;2023-07-31T14:10:46;5.28;;;2.30;;
21392;SDS011;10857;52.228;21.026;2023-07-31T14:13:14;8.88;;;2.60;;
21392;SDS011;10857;52.228;21.026;2023-07-31T14:15:41;7.43;;;2.50;;
21392;SDS011;10857;52.228;21.026;2023-07-31T14:18:09;4.03;;;2.10;;
21392;SDS011;10857;52.228;21.026;2023-07-31T14:20:37;5.45;;;2.75;;
21392;SDS011;10857;52.228;21.026;2023-07-31T14:23:05;7.95;;;2.50;;
21392;SDS011;10857;52.228;21.026;2023-07-31T14:25:32;6.40;;;2.30;;
21392;SDS011;10857;52.228;21.026;2023-07-31T14:27:59;7.57;;;2.42;;
21392;SDS011;10857;52.228;21.026;2023-07-31T14:30:26;24.48;;;3.88;;
21392;SDS011;10857;52.228;21.026;2023-07-31T14:32:53;9.23;;;2.67;;
21392;SDS011;10857;52.228;21.026;2023-07-31T14:35:20;13.85;;;2.78;;
21392;SDS011;10857;52.228;21.026;2023-07-31T14:37:47;8.55;;;2.33;;
21392;SDS011;10857;52.228;21.026;2023-07-31T14:40:14;9.35;;;2.60;;
21392;SDS011;10857;52.228;21.026;2023-07-31T14:42:41;4.07;;;2.40;;
21392;SDS011;10857;52.228;21.026;2023-07-31T14:45:08;7.65;;;2.85;;
21392;SDS011;10857;52.228;21.026;2023-07-31T14:47:36;5.63;;;2.58;;
21392;SDS011;10857;52.228;21.026;2023-07-31T14:50:03;4.47;;;2.40;;
21392;SDS011;10857;52.228;21.026;2023-07-31T14:52:31;3.50;;;2.25;;
21392;SDS011;10857;52.228;21.026;2023-07-31T14:54:58;7.32;;;2.45;;
21392;SDS011;10857;52.228;21.026;2023-07-31T14:57:25;7.85;;;2.33;;